sensor_id;sensor_type;location;lat;lon;timestamp;P1;durP1;ratioP1;P2;durP2;ratioP2
19554;SDS011;9924;50.828;6.440;2023-06-26T00:01:04;8.27;;;6.78;;
19554;SDS011;9924;50.828;6.440;2023-06-26T00:03:49;9.13;;;6.72;;
19554;SDS011;9924;50.828;6.440;2023-06-26T00:06:33;7.75;;;6.10;;
19554;SDS011;9924;50.828;6.440;2023-06-26T00:09:18;8.27;;;6.38;;
19554;SDS011;9924;50.828;6.440;2023-06-26T00:12:02;6.97;;;5.60;;
19554;SDS011;9924;50.828;6.440;2023-06-26T00:14:47;6.20;;;5.60;;
19554;SDS011;9924;50.828;6.440;2023-06-26T00:17:31;7.13;;;5.68;;
19554;SDS011;9924;50.828;6.440;2023-06-26T00:20:20;6.55;;;5.72;;
19554;SDS011;9924;50.828;6.440;2023-06-26T00:23:07;7.32;;;5.55;;
19554;SDS011;9924;50.828;6.440;2023-06-26T00:25:51;8.05;;;5.97;;
19554;SDS011;9924;50.828;6.440;2023-06-26T00:28:36;10.57;;;6.18;;
19554;SDS011;9924;50.828;6.440;2023-06-26T00:31:20;7.32;;;5.20;;
19554;SDS011;9924;50.828;6.440;2023-06-26T00:34:05;6.97;;;5.72;;
19554;SDS011;9924;50.828;6.440;2023-06-26T00:36:49;6.53;;;5.50;;
19554;SDS011;9924;50.828;6.440;2023-06-26T00:39:34;6.72;;;5.55;;
19554;SDS011;9924;50.828;6.440;2023-06-26T00:42:19;7.40;;;5.60;;
19554;SDS011;9924;50.828;6.440;2023-06-26T00:45:03;5.80;;;5.20;;
19554;SDS011;9924;50.828;6.440;2023-06-26T00:47:48;9.60;;;5.68;;
19554;SDS011;9924;50.828;6.440;2023-06-26T00:50:33;8.95;;;5.75;;
19554;SDS011;9924;50.828;6.440;2023-06-26T00:53:17;6.55;;;5.47;;
19554;SDS011;9924;50.828;6.440;2023-06-26T00:56:02;7.70;;;5.47;;
19554;SDS011;9924;50.828;6.440;2023-06-26T00:58:47;7.97;;;5.55;;
19554;SDS011;9924;50.828;6.440;2023-06-26T01:01:32;6.63;;;5.32;;
19554;SDS011;9924;50.828;6.440;2023-06-26T01:04:16;7.22;;;5.28;;
19554;SDS011;9924;50.828;6.440;2023-06-26T01:07:02;6.78;;;5.70;;
19554;SDS011;9924;50.828;6.440;2023-06-26T01:09:48;8.57;;;6.03;;
19554;SDS011;9924;50.828;6.440;2023-06-26T01:12:33;7.28;;;5.30;;
19554;SDS011;9924;50.828;6.440;2023-06-26T01:15:18;8.00;;;5.82;;
19554;SDS011;9924;50.828;6.440;2023-06-26T01:18:03;8.13;;;5.30;;
19554;SDS011;9924;50.828;6.440;2023-06-26T01:20:48;8.15;;;5.57;;
19554;SDS011;9924;50.828;6.440;2023-06-26T01:23:39;8.07;;;5.65;;
19554;SDS011;9924;50.828;6.440;2023-06-26T01:26:28;10.20;;;6.32;;
19554;SDS011;9924;50.828;6.440;2023-06-26T01:29:15;6.47;;;5.57;;
19554;SDS011;9924;50.828;6.440;2023-06-26T01:32:01;6.30;;;5.40;;
19554;SDS011;9924;50.828;6.440;2023-06-26T01:34:46;7.25;;;5.18;;
19554;SDS011;9924;50.828;6.440;2023-06-26T01:37:31;8.30;;;5.60;;
19554;SDS011;9924;50.828;6.440;2023-06-26T01:40:16;8.48;;;5.40;;
19554;SDS011;9924;50.828;6.440;2023-06-26T01:43:00;8.30;;;5.68;;
19554;SDS011;9924;50.828;6.440;2023-06-26T01:45:46;10.80;;;6.13;;
19554;SDS011;9924;50.828;6.440;2023-06-26T01:48:34;8.23;;;5.35;;
19554;SDS011;9924;50.828;6.440;2023-06-26T01:51:28;10.27;;;5.80;;
19554;SDS011;9924;50.828;6.440;2023-06-26T01:54:17;7.88;;;5.55;;
19554;SDS011;9924;50.828;6.440;2023-06-26T01:57:04;10.23;;;6.22;;
19554;SDS011;9924;50.828;6.440;2023-06-26T01:59:50;6.80;;;5.63;;
19554;SDS011;9924;50.828;6.440;2023-06-26T02:02:36;6.93;;;5.43;;
19554;SDS011;9924;50.828;6.440;2023-06-26T02:05:20;7.38;;;5.40;;
19554;SDS011;9924;50.828;6.440;2023-06-26T02:08:10;6.38;;;5.43;;
19554;SDS011;9924;50.828;6.440;2023-06-26T02:10:57;6.95;;;4.88;;
19554;SDS011;9924;50.828;6.440;2023-06-26T02:13:42;6.50;;;4.97;;
19554;SDS011;9924;50.828;6.440;2023-06-26T02:16:26;7.70;;;4.93;;
19554;SDS011;9924;50.828;6.440;2023-06-26T02:19:11;7.60;;;4.78;;
19554;SDS011;9924;50.828;6.440;2023-06-26T02:21:56;9.07;;;5.13;;
19554;SDS011;9924;50.828;6.440;2023-06-26T02:24:41;8.85;;;5.57;;
19554;SDS011;9924;50.828;6.440;2023-06-26T02:27:28;7.72;;;4.90;;
19554;SDS011;9924;50.828;6.440;2023-06-26T02:30:12;5.45;;;4.93;;
19554;SDS011;9924;50.828;6.440;2023-06-26T02:32:57;7.68;;;5.50;;
19554;SDS011;9924;50.828;6.440;2023-06-26T02:35:42;8.02;;;5.40;;
19554;SDS011;9924;50.828;6.440;2023-06-26T02:38:26;8.18;;;4.95;;
19554;SDS011;9924;50.828;6.440;2023-06-26T02:41:11;6.45;;;5.05;;
19554;SDS011;9924;50.828;6.440;2023-06-26T02:43:55;6.03;;;5.20;;
19554;SDS011;9924;50.828;6.440;2023-06-26T02:46:40;6.75;;;5.03;;
19554;SDS011;9924;50.828;6.440;2023-06-26T02:49:24;8.90;;;5.30;;
19554;SDS011;9924;50.828;6.440;2023-06-26T02:52:09;7.65;;;4.95;;
19554;SDS011;9924;50.828;6.440;2023-06-26T02:54:53;8.25;;;5.22;;
19554;SDS011;9924;50.828;6.440;2023-06-26T02:57:38;9.52;;;5.30;;
19554;SDS011;9924;50.828;6.440;2023-06-26T03:00:23;8.07;;;4.82;;
19554;SDS011;9924;50.828;6.440;2023-06-26T03:03:07;8.35;;;5.22;;
19554;SDS011;9924;50.828;6.440;2023-06-26T03:05:52;8.63;;;5.32;;
19554;SDS011;9924;50.828;6.440;2023-06-26T03:08:37;6.68;;;5.18;;
19554;SDS011;9924;50.828;6.440;2023-06-26T03:11:25;9.23;;;5.75;;
19554;SDS011;9924;50.828;6.440;2023-06-26T03:14:09;7.95;;;5.28;;
19554;SDS011;9924;50.828;6.440;2023-06-26T03:16:54;11.07;;;6.38;;
19554;SDS011;9924;50.828;6.440;2023-06-26T03:19:41;9.27;;;6.07;;
19554;SDS011;9924;50.828;6.440;2023-06-26T03:22:26;8.65;;;5.55;;
19554;SDS011;9924;50.828;6.440;2023-06-26T03:25:10;9.75;;;5.57;;
19554;SDS011;9924;50.828;6.440;2023-06-26T03:27:54;9.80;;;5.75;;
19554;SDS011;9924;50.828;6.440;2023-06-26T03:30:39;9.63;;;5.38;;
19554;SDS011;9924;50.828;6.440;2023-06-26T03:33:24;9.52;;;5.35;;
19554;SDS011;9924;50.828;6.440;2023-06-26T03:36:09;8.35;;;5.13;;
19554;SDS011;9924;50.828;6.440;2023-06-26T03:38:53;9.85;;;5.47;;
19554;SDS011;9924;50.828;6.440;2023-06-26T03:41:40;7.40;;;5.45;;
19554;SDS011;9924;50.828;6.440;2023-06-26T03:44:24;13.30;;;5.80;;
19554;SDS011;9924;50.828;6.440;2023-06-26T03:47:09;10.02;;;5.47;;
19554;SDS011;9924;50.828;6.440;2023-06-26T03:49:53;9.25;;;5.45;;
19554;SDS011;9924;50.828;6.440;2023-06-26T03:52:37;8.32;;;5.22;;
19554;SDS011;9924;50.828;6.440;2023-06-26T03:55:22;6.82;;;5.28;;
19554;SDS011;9924;50.828;6.440;2023-06-26T03:58:07;9.02;;;5.57;;
19554;SDS011;9924;50.828;6.440;2023-06-26T04:00:51;7.60;;;5.32;;
19554;SDS011;9924;50.828;6.440;2023-06-26T04:03:36;6.65;;;5.38;;
19554;SDS011;9924;50.828;6.440;2023-06-26T04:06:21;6.88;;;5.40;;
19554;SDS011;9924;50.828;6.440;2023-06-26T04:09:05;8.23;;;5.47;;
19554;SDS011;9924;50.828;6.440;2023-06-26T04:11:50;8.43;;;5.30;;
19554;SDS011;9924;50.828;6.440;2023-06-26T04:14:37;7.18;;;5.47;;
19554;SDS011;9924;50.828;6.440;2023-06-26T04:17:22;9.95;;;5.47;;
19554;SDS011;9924;50.828;6.440;2023-06-26T04:20:07;8.52;;;5.47;;
19554;SDS011;9924;50.828;6.440;2023-06-26T04:22:52;6.85;;;5.13;;
19554;SDS011;9924;50.828;6.440;2023-06-26T04:25:37;7.13;;;5.43;;
19554;SDS011;9924;50.828;6.440;2023-06-26T04:28:22;9.90;;;5.25;;
19554;SDS011;9924;50.828;6.440;2023-06-26T04:31:06;5.95;;;4.85;;
19554;SDS011;9924;50.828;6.440;2023-06-26T04:33:52;9.93;;;4.95;;
19554;SDS011;9924;50.828;6.440;2023-06-26T04:36:38;6.75;;;5.20;;
19554;SDS011;9924;50.828;6.440;2023-06-26T04:39:26;8.25;;;5.20;;
19554;SDS011;9924;50.828;6.440;2023-06-26T04:42:10;8.27;;;5.07;;
19554;SDS011;9924;50.828;6.440;2023-06-26T04:44:55;8.45;;;5.05;;
19554;SDS011;9924;50.828;6.440;2023-06-26T04:47:40;8.35;;;4.40;;
19554;SDS011;9924;50.828;6.440;2023-06-26T04:50:24;10.85;;;5.40;;
19554;SDS011;9924;50.828;6.440;2023-06-26T04:53:09;7.57;;;4.93;;
19554;SDS011;9924;50.828;6.440;2023-06-26T04:55:54;6.20;;;4.35;;
19554;SDS011;9924;50.828;6.440;2023-06-26T04:58:38;6.10;;;4.53;;
19554;SDS011;9924;50.828;6.440;2023-06-26T05:01:23;7.38;;;4.38;;
19554;SDS011;9924;50.828;6.440;2023-06-26T05:04:07;6.82;;;4.20;;
19554;SDS011;9924;50.828;6.440;2023-06-26T05:06:52;6.53;;;4.35;;
19554;SDS011;9924;50.828;6.440;2023-06-26T05:09:36;7.90;;;4.43;;
19554;SDS011;9924;50.828;6.440;2023-06-26T05:12:21;8.20;;;3.88;;
19554;SDS011;9924;50.828;6.440;2023-06-26T05:15:06;6.90;;;3.92;;
19554;SDS011;9924;50.828;6.440;2023-06-26T05:17:53;7.10;;;4.20;;
19554;SDS011;9924;50.828;6.440;2023-06-26T05:20:38;7.20;;;4.05;;
19554;SDS011;9924;50.828;6.440;2023-06-26T05:23:23;6.70;;;3.60;;
19554;SDS011;9924;50.828;6.440;2023-06-26T05:26:10;8.30;;;3.95;;
19554;SDS011;9924;50.828;6.440;2023-06-26T05:28:55;7.40;;;4.13;;
19554;SDS011;9924;50.828;6.440;2023-06-26T05:31:40;9.40;;;3.80;;
19554;SDS011;9924;50.828;6.440;2023-06-26T05:34:26;6.05;;;3.70;;
19554;SDS011;9924;50.828;6.440;2023-06-26T05:37:19;6.45;;;3.40;;
19554;SDS011;9924;50.828;6.440;2023-06-26T05:40:05;11.85;;;4.30;;
19554;SDS011;9924;50.828;6.440;2023-06-26T05:42:51;10.25;;;4.25;;
19554;SDS011;9924;50.828;6.440;2023-06-26T05:45:35;6.13;;;4.35;;
19554;SDS011;9924;50.828;6.440;2023-06-26T05:48:20;11.00;;;4.18;;
19554;SDS011;9924;50.828;6.440;2023-06-26T05:51:05;10.40;;;3.60;;
19554;SDS011;9924;50.828;6.440;2023-06-26T05:53:50;9.60;;;4.20;;
19554;SDS011;9924;50.828;6.440;2023-06-26T05:56:35;11.75;;;4.40;;
19554;SDS011;9924;50.828;6.440;2023-06-26T05:59:20;11.00;;;4.32;;
19554;SDS011;9924;50.828;6.440;2023-06-26T06:02:05;10.23;;;4.45;;
19554;SDS011;9924;50.828;6.440;2023-06-26T06:04:49;7.90;;;4.00;;
19554;SDS011;9924;50.828;6.440;2023-06-26T06:07:34;10.70;;;4.43;;
19554;SDS011;9924;50.828;6.440;2023-06-26T06:10:19;7.95;;;4.00;;
19554;SDS011;9924;50.828;6.440;2023-06-26T06:13:03;12.40;;;4.90;;
19554;SDS011;9924;50.828;6.440;2023-06-26T06:15:48;9.30;;;4.50;;
19554;SDS011;9924;50.828;6.440;2023-06-26T06:18:33;12.32;;;4.43;;
19554;SDS011;9924;50.828;6.440;2023-06-26T06:21:17;11.48;;;4.05;;
19554;SDS011;9924;50.828;6.440;2023-06-26T06:24:02;9.88;;;4.55;;
19554;SDS011;9924;50.828;6.440;2023-06-26T06:26:47;7.22;;;4.28;;
19554;SDS011;9924;50.828;6.440;2023-06-26T06:29:31;11.80;;;4.97;;
19554;SDS011;9924;50.828;6.440;2023-06-26T06:32:15;9.48;;;4.47;;
19554;SDS011;9924;50.828;6.440;2023-06-26T06:35:00;9.70;;;4.68;;
19554;SDS011;9924;50.828;6.440;2023-06-26T06:37:50;7.60;;;4.15;;
19554;SDS011;9924;50.828;6.440;2023-06-26T06:40:35;9.55;;;4.32;;
19554;SDS011;9924;50.828;6.440;2023-06-26T06:43:22;12.40;;;4.38;;
19554;SDS011;9924;50.828;6.440;2023-06-26T06:46:10;10.88;;;4.75;;
19554;SDS011;9924;50.828;6.440;2023-06-26T06:48:55;13.07;;;5.07;;
19554;SDS011;9924;50.828;6.440;2023-06-26T06:51:40;11.45;;;4.47;;
19554;SDS011;9924;50.828;6.440;2023-06-26T06:54:25;10.32;;;4.80;;
19554;SDS011;9924;50.828;6.440;2023-06-26T06:57:12;10.63;;;5.10;;
19554;SDS011;9924;50.828;6.440;2023-06-26T06:59:56;13.13;;;4.80;;
19554;SDS011;9924;50.828;6.440;2023-06-26T07:02:43;13.25;;;4.93;;
19554;SDS011;9924;50.828;6.440;2023-06-26T07:05:28;10.25;;;5.05;;
19554;SDS011;9924;50.828;6.440;2023-06-26T07:08:13;13.90;;;5.85;;
19554;SDS011;9924;50.828;6.440;2023-06-26T07:10:58;12.13;;;4.57;;
19554;SDS011;9924;50.828;6.440;2023-06-26T07:13:42;11.50;;;4.97;;
19554;SDS011;9924;50.828;6.440;2023-06-26T07:16:27;10.00;;;4.43;;
19554;SDS011;9924;50.828;6.440;2023-06-26T07:19:11;8.95;;;4.13;;
19554;SDS011;9924;50.828;6.440;2023-06-26T07:21:56;12.55;;;4.50;;
19554;SDS011;9924;50.828;6.440;2023-06-26T07:24:40;7.15;;;3.88;;
19554;SDS011;9924;50.828;6.440;2023-06-26T07:27:25;11.63;;;4.38;;
19554;SDS011;9924;50.828;6.440;2023-06-26T07:30:10;17.65;;;4.75;;
19554;SDS011;9924;50.828;6.440;2023-06-26T07:32:55;9.57;;;3.67;;
19554;SDS011;9924;50.828;6.440;2023-06-26T07:35:39;9.40;;;4.18;;
19554;SDS011;9924;50.828;6.440;2023-06-26T07:38:24;9.65;;;3.80;;
19554;SDS011;9924;50.828;6.440;2023-06-26T07:41:08;8.73;;;3.83;;
19554;SDS011;9924;50.828;6.440;2023-06-26T07:43:53;7.15;;;3.70;;
19554;SDS011;9924;50.828;6.440;2023-06-26T07:46:38;8.05;;;3.50;;
19554;SDS011;9924;50.828;6.440;2023-06-26T07:49:22;10.00;;;4.05;;
19554;SDS011;9924;50.828;6.440;2023-06-26T07:52:07;8.80;;;3.47;;
19554;SDS011;9924;50.828;6.440;2023-06-26T07:54:54;10.50;;;3.60;;
19554;SDS011;9924;50.828;6.440;2023-06-26T07:57:38;8.85;;;3.60;;
19554;SDS011;9924;50.828;6.440;2023-06-26T08:00:23;12.85;;;3.88;;
19554;SDS011;9924;50.828;6.440;2023-06-26T08:03:07;8.00;;;3.40;;
19554;SDS011;9924;50.828;6.440;2023-06-26T08:05:51;11.40;;;3.35;;
19554;SDS011;9924;50.828;6.440;2023-06-26T08:08:36;8.85;;;3.92;;
19554;SDS011;9924;50.828;6.440;2023-06-26T08:11:20;12.38;;;3.92;;
19554;SDS011;9924;50.828;6.440;2023-06-26T08:14:05;8.75;;;3.53;;
19554;SDS011;9924;50.828;6.440;2023-06-26T08:16:49;10.07;;;3.63;;
19554;SDS011;9924;50.828;6.440;2023-06-26T08:19:34;8.00;;;3.45;;
19554;SDS011;9924;50.828;6.440;2023-06-26T08:22:19;9.88;;;3.60;;
19554;SDS011;9924;50.828;6.440;2023-06-26T08:25:03;10.27;;;3.83;;
19554;SDS011;9924;50.828;6.440;2023-06-26T08:27:49;6.78;;;3.13;;
19554;SDS011;9924;50.828;6.440;2023-06-26T08:30:36;10.35;;;3.15;;
19554;SDS011;9924;50.828;6.440;2023-06-26T08:33:21;13.80;;;3.97;;
19554;SDS011;9924;50.828;6.440;2023-06-26T08:36:05;10.80;;;3.97;;
19554;SDS011;9924;50.828;6.440;2023-06-26T08:38:49;8.57;;;3.13;;
19554;SDS011;9924;50.828;6.440;2023-06-26T08:41:34;9.13;;;3.45;;
19554;SDS011;9924;50.828;6.440;2023-06-26T08:44:19;8.55;;;2.83;;
19554;SDS011;9924;50.828;6.440;2023-06-26T08:47:08;8.70;;;3.30;;
19554;SDS011;9924;50.828;6.440;2023-06-26T08:49:59;8.57;;;2.95;;
19554;SDS011;9924;50.828;6.440;2023-06-26T08:52:54;5.55;;;2.58;;
19554;SDS011;9924;50.828;6.440;2023-06-26T08:55:45;11.07;;;2.67;;
19554;SDS011;9924;50.828;6.440;2023-06-26T08:58:33;5.78;;;2.70;;
19554;SDS011;9924;50.828;6.440;2023-06-26T09:01:20;7.60;;;2.72;;
19554;SDS011;9924;50.828;6.440;2023-06-26T09:04:04;6.68;;;2.70;;
19554;SDS011;9924;50.828;6.440;2023-06-26T09:06:50;7.55;;;2.63;;
19554;SDS011;9924;50.828;6.440;2023-06-26T09:09:35;7.40;;;2.55;;
19554;SDS011;9924;50.828;6.440;2023-06-26T09:12:20;8.27;;;2.85;;
19554;SDS011;9924;50.828;6.440;2023-06-26T09:15:05;10.57;;;2.63;;
19554;SDS011;9924;50.828;6.440;2023-06-26T09:17:50;10.15;;;2.88;;
19554;SDS011;9924;50.828;6.440;2023-06-26T09:20:40;9.27;;;2.65;;
19554;SDS011;9924;50.828;6.440;2023-06-26T09:23:24;6.22;;;2.70;;
19554;SDS011;9924;50.828;6.440;2023-06-26T09:26:11;11.05;;;3.25;;
19554;SDS011;9924;50.828;6.440;2023-06-26T09:28:55;6.30;;;2.42;;
19554;SDS011;9924;50.828;6.440;2023-06-26T09:31:41;8.05;;;2.38;;
19554;SDS011;9924;50.828;6.440;2023-06-26T09:34:30;7.68;;;2.40;;
19554;SDS011;9924;50.828;6.440;2023-06-26T09:37:15;6.03;;;2.03;;
19554;SDS011;9924;50.828;6.440;2023-06-26T09:40:00;8.55;;;2.10;;
19554;SDS011;9924;50.828;6.440;2023-06-26T09:42:44;10.75;;;2.60;;
19554;SDS011;9924;50.828;6.440;2023-06-26T09:45:30;5.63;;;2.42;;
19554;SDS011;9924;50.828;6.440;2023-06-26T09:48:20;7.28;;;2.45;;
19554;SDS011;9924;50.828;6.440;2023-06-26T09:51:05;3.70;;;2.10;;
19554;SDS011;9924;50.828;6.440;2023-06-26T09:53:49;6.50;;;2.30;;
19554;SDS011;9924;50.828;6.440;2023-06-26T09:56:34;5.85;;;2.10;;
19554;SDS011;9924;50.828;6.440;2023-06-26T09:59:19;9.80;;;2.20;;
19554;SDS011;9924;50.828;6.440;2023-06-26T10:02:03;7.97;;;2.60;;
19554;SDS011;9924;50.828;6.440;2023-06-26T10:04:48;6.53;;;2.30;;
19554;SDS011;9924;50.828;6.440;2023-06-26T10:07:33;8.70;;;2.28;;
19554;SDS011;9924;50.828;6.440;2023-06-26T10:10:20;7.20;;;1.85;;
19554;SDS011;9924;50.828;6.440;2023-06-26T10:13:15;7.38;;;2.25;;
19554;SDS011;9924;50.828;6.440;2023-06-26T10:16:05;8.77;;;2.67;;
19554;SDS011;9924;50.828;6.440;2023-06-26T10:18:53;7.70;;;2.33;;
19554;SDS011;9924;50.828;6.440;2023-06-26T10:21:40;7.07;;;1.95;;
19554;SDS011;9924;50.828;6.440;2023-06-26T10:24:26;6.68;;;1.88;;
19554;SDS011;9924;50.828;6.440;2023-06-26T10:27:21;4.75;;;1.77;;
19554;SDS011;9924;50.828;6.440;2023-06-26T10:30:14;5.18;;;2.15;;
19554;SDS011;9924;50.828;6.440;2023-06-26T10:33:03;5.00;;;1.92;;
19554;SDS011;9924;50.828;6.440;2023-06-26T10:35:48;7.57;;;2.05;;
19554;SDS011;9924;50.828;6.440;2023-06-26T10:38:52;7.45;;;2.35;;
19554;SDS011;9924;50.828;6.440;2023-06-26T10:41:39;6.47;;;1.95;;
19554;SDS011;9924;50.828;6.440;2023-06-26T10:44:27;5.03;;;1.88;;
19554;SDS011;9924;50.828;6.440;2023-06-26T10:47:30;5.05;;;1.95;;
19554;SDS011;9924;50.828;6.440;2023-06-26T10:50:26;6.75;;;1.77;;
19554;SDS011;9924;50.828;6.440;2023-06-26T10:56:08;3.42;;;1.30;;
19554;SDS011;9924;50.828;6.440;2023-06-26T10:58:52;5.10;;;1.73;;
19554;SDS011;9924;50.828;6.440;2023-06-26T11:02:05;7.30;;;2.13;;
19554;SDS011;9924;50.828;6.440;2023-06-26T11:04:50;4.60;;;1.63;;
19554;SDS011;9924;50.828;6.440;2023-06-26T11:07:37;6.90;;;1.90;;
19554;SDS011;9924;50.828;6.440;2023-06-26T11:13:37;7.78;;;1.60;;
19554;SDS011;9924;50.828;6.440;2023-06-26T11:16:22;4.85;;;1.80;;
19554;SDS011;9924;50.828;6.440;2023-06-26T11:19:10;5.03;;;1.58;;
19554;SDS011;9924;50.828;6.440;2023-06-26T11:21:58;4.53;;;2.22;;
19554;SDS011;9924;50.828;6.440;2023-06-26T11:24:44;3.67;;;1.50;;
19554;SDS011;9924;50.828;6.440;2023-06-26T11:27:39;4.60;;;1.92;;
19554;SDS011;9924;50.828;6.440;2023-06-26T11:30:25;5.05;;;1.92;;
19554;SDS011;9924;50.828;6.440;2023-06-26T11:33:10;10.20;;;2.05;;
19554;SDS011;9924;50.828;6.440;2023-06-26T11:35:54;6.20;;;1.60;;
19554;SDS011;9924;50.828;6.440;2023-06-26T11:38:39;2.67;;;1.52;;
19554;SDS011;9924;50.828;6.440;2023-06-26T11:41:27;4.20;;;1.88;;
19554;SDS011;9924;50.828;6.440;2023-06-26T11:44:12;4.55;;;2.00;;
19554;SDS011;9924;50.828;6.440;2023-06-26T11:47:03;5.32;;;1.98;;
19554;SDS011;9924;50.828;6.440;2023-06-26T11:49:49;6.78;;;1.67;;
19554;SDS011;9924;50.828;6.440;2023-06-26T11:52:33;5.40;;;1.77;;
19554;SDS011;9924;50.828;6.440;2023-06-26T11:55:18;6.10;;;1.85;;
19554;SDS011;9924;50.828;6.440;2023-06-26T11:58:02;5.22;;;2.00;;
19554;SDS011;9924;50.828;6.440;2023-06-26T12:00:47;6.22;;;1.95;;
19554;SDS011;9924;50.828;6.440;2023-06-26T12:03:32;2.60;;;1.60;;
19554;SDS011;9924;50.828;6.440;2023-06-26T12:06:17;4.70;;;1.60;;
19554;SDS011;9924;50.828;6.440;2023-06-26T12:09:02;3.78;;;1.50;;
19554;SDS011;9924;50.828;6.440;2023-06-26T12:11:55;7.53;;;1.73;;
19554;SDS011;9924;50.828;6.440;2023-06-26T12:14:40;4.93;;;1.58;;
19554;SDS011;9924;50.828;6.440;2023-06-26T12:17:24;4.20;;;1.30;;
19554;SDS011;9924;50.828;6.440;2023-06-26T12:20:19;3.92;;;1.48;;
19554;SDS011;9924;50.828;6.440;2023-06-26T12:23:13;5.47;;;2.00;;
19554;SDS011;9924;50.828;6.440;2023-06-26T12:25:57;5.30;;;1.73;;
19554;SDS011;9924;50.828;6.440;2023-06-26T12:28:43;6.30;;;2.03;;
19554;SDS011;9924;50.828;6.440;2023-06-26T12:31:28;3.58;;;1.67;;
19554;SDS011;9924;50.828;6.440;2023-06-26T12:34:14;4.50;;;1.60;;
19554;SDS011;9924;50.828;6.440;2023-06-26T12:37:03;4.47;;;1.40;;
19554;SDS011;9924;50.828;6.440;2023-06-26T12:39:56;4.25;;;1.60;;
19554;SDS011;9924;50.828;6.440;2023-06-26T12:42:41;7.57;;;1.38;;
19554;SDS011;9924;50.828;6.440;2023-06-26T12:45:25;5.90;;;1.67;;
19554;SDS011;9924;50.828;6.440;2023-06-26T12:48:11;4.47;;;1.73;;
19554;SDS011;9924;50.828;6.440;2023-06-26T12:50:56;3.80;;;1.55;;
19554;SDS011;9924;50.828;6.440;2023-06-26T12:53:41;6.22;;;1.88;;
19554;SDS011;9924;50.828;6.440;2023-06-26T12:56:26;6.32;;;1.50;;
19554;SDS011;9924;50.828;6.440;2023-06-26T12:59:11;6.57;;;1.40;;
19554;SDS011;9924;50.828;6.440;2023-06-26T13:01:55;5.55;;;1.48;;
19554;SDS011;9924;50.828;6.440;2023-06-26T13:04:40;7.55;;;1.70;;
19554;SDS011;9924;50.828;6.440;2023-06-26T13:07:24;5.88;;;1.33;;
19554;SDS011;9924;50.828;6.440;2023-06-26T13:10:09;4.25;;;1.42;;
19554;SDS011;9924;50.828;6.440;2023-06-26T13:12:53;8.05;;;1.58;;
19554;SDS011;9924;50.828;6.440;2023-06-26T13:15:38;6.57;;;1.67;;
19554;SDS011;9924;50.828;6.440;2023-06-26T13:18:23;4.43;;;1.55;;
19554;SDS011;9924;50.828;6.440;2023-06-26T13:21:07;7.07;;;1.70;;
19554;SDS011;9924;50.828;6.440;2023-06-26T13:23:51;6.45;;;1.50;;
19554;SDS011;9924;50.828;6.440;2023-06-26T13:26:36;3.90;;;1.58;;
19554;SDS011;9924;50.828;6.440;2023-06-26T13:29:21;3.38;;;1.30;;
19554;SDS011;9924;50.828;6.440;2023-06-26T13:32:06;5.43;;;1.35;;
19554;SDS011;9924;50.828;6.440;2023-06-26T13:34:51;4.53;;;1.30;;
19554;SDS011;9924;50.828;6.440;2023-06-26T13:37:36;4.22;;;1.38;;
19554;SDS011;9924;50.828;6.440;2023-06-26T13:40:20;3.45;;;1.52;;
19554;SDS011;9924;50.828;6.440;2023-06-26T13:43:04;3.33;;;1.30;;
19554;SDS011;9924;50.828;6.440;2023-06-26T13:45:49;2.65;;;1.50;;
19554;SDS011;9924;50.828;6.440;2023-06-26T13:48:33;4.85;;;1.63;;
19554;SDS011;9924;50.828;6.440;2023-06-26T13:51:18;4.35;;;1.35;;
19554;SDS011;9924;50.828;6.440;2023-06-26T13:54:02;6.32;;;1.58;;
19554;SDS011;9924;50.828;6.440;2023-06-26T13:56:47;4.22;;;1.48;;
19554;SDS011;9924;50.828;6.440;2023-06-26T13:59:31;3.78;;;1.63;;
19554;SDS011;9924;50.828;6.440;2023-06-26T14:02:17;2.85;;;1.20;;
19554;SDS011;9924;50.828;6.440;2023-06-26T14:05:02;3.05;;;1.25;;
19554;SDS011;9924;50.828;6.440;2023-06-26T14:07:47;4.93;;;1.35;;
19554;SDS011;9924;50.828;6.440;2023-06-26T14:10:32;2.55;;;1.40;;
19554;SDS011;9924;50.828;6.440;2023-06-26T14:13:17;5.55;;;1.55;;
19554;SDS011;9924;50.828;6.440;2023-06-26T14:16:02;7.05;;;1.52;;
19554;SDS011;9924;50.828;6.440;2023-06-26T14:18:47;4.85;;;1.30;;
19554;SDS011;9924;50.828;6.440;2023-06-26T14:21:31;4.13;;;1.35;;
19554;SDS011;9924;50.828;6.440;2023-06-26T14:24:17;2.47;;;1.27;;
19554;SDS011;9924;50.828;6.440;2023-06-26T14:27:01;5.90;;;1.38;;
19554;SDS011;9924;50.828;6.440;2023-06-26T14:29:46;4.95;;;1.35;;
19554;SDS011;9924;50.828;6.440;2023-06-26T14:32:30;6.90;;;1.70;;
19554;SDS011;9924;50.828;6.440;2023-06-26T14:35:15;3.45;;;1.20;;
19554;SDS011;9924;50.828;6.440;2023-06-26T14:37:59;3.25;;;1.50;;
19554;SDS011;9924;50.828;6.440;2023-06-26T14:40:44;5.32;;;1.45;;
19554;SDS011;9924;50.828;6.440;2023-06-26T14:43:29;9.15;;;2.13;;
19554;SDS011;9924;50.828;6.440;2023-06-26T14:46:13;2.97;;;1.45;;
19554;SDS011;9924;50.828;6.440;2023-06-26T14:48:57;6.35;;;1.88;;
19554;SDS011;9924;50.828;6.440;2023-06-26T14:51:42;5.30;;;1.83;;
19554;SDS011;9924;50.828;6.440;2023-06-26T14:54:27;7.78;;;1.40;;
19554;SDS011;9924;50.828;6.440;2023-06-26T14:57:11;4.32;;;1.88;;
19554;SDS011;9924;50.828;6.440;2023-06-26T14:59:56;2.85;;;1.50;;
19554;SDS011;9924;50.828;6.440;2023-06-26T15:02:40;5.30;;;1.77;;
19554;SDS011;9924;50.828;6.440;2023-06-26T15:05:25;3.95;;;1.42;;
19554;SDS011;9924;50.828;6.440;2023-06-26T15:08:10;4.88;;;1.50;;
19554;SDS011;9924;50.828;6.440;2023-06-26T15:10:55;3.22;;;1.30;;
19554;SDS011;9924;50.828;6.440;2023-06-26T15:13:39;4.93;;;1.92;;
19554;SDS011;9924;50.828;6.440;2023-06-26T15:16:24;5.72;;;1.65;;
19554;SDS011;9924;50.828;6.440;2023-06-26T15:19:08;3.75;;;1.08;;
19554;SDS011;9924;50.828;6.440;2023-06-26T15:21:53;5.53;;;1.50;;
19554;SDS011;9924;50.828;6.440;2023-06-26T15:24:37;3.60;;;1.30;;
19554;SDS011;9924;50.828;6.440;2023-06-26T15:27:24;5.68;;;1.70;;
19554;SDS011;9924;50.828;6.440;2023-06-26T15:30:08;4.80;;;1.40;;
19554;SDS011;9924;50.828;6.440;2023-06-26T15:32:53;3.75;;;1.73;;
19554;SDS011;9924;50.828;6.440;2023-06-26T15:35:37;7.20;;;1.92;;
19554;SDS011;9924;50.828;6.440;2023-06-26T15:38:21;3.38;;;1.60;;
19554;SDS011;9924;50.828;6.440;2023-06-26T15:41:06;6.80;;;1.48;;
19554;SDS011;9924;50.828;6.440;2023-06-26T15:43:50;2.95;;;1.10;;
19554;SDS011;9924;50.828;6.440;2023-06-26T15:46:35;3.60;;;1.55;;
19554;SDS011;9924;50.828;6.440;2023-06-26T15:49:20;4.25;;;1.50;;
19554;SDS011;9924;50.828;6.440;2023-06-26T15:52:05;6.43;;;1.40;;
19554;SDS011;9924;50.828;6.440;2023-06-26T15:54:49;9.50;;;1.63;;
19554;SDS011;9924;50.828;6.440;2023-06-26T15:57:34;5.10;;;1.77;;
19554;SDS011;9924;50.828;6.440;2023-06-26T16:00:19;5.40;;;1.33;;
19554;SDS011;9924;50.828;6.440;2023-06-26T16:03:03;4.38;;;1.23;;
19554;SDS011;9924;50.828;6.440;2023-06-26T16:05:48;2.95;;;1.42;;
19554;SDS011;9924;50.828;6.440;2023-06-26T16:08:33;3.65;;;1.30;;
19554;SDS011;9924;50.828;6.440;2023-06-26T16:11:17;3.78;;;1.42;;
19554;SDS011;9924;50.828;6.440;2023-06-26T16:14:02;3.28;;;1.42;;
19554;SDS011;9924;50.828;6.440;2023-06-26T16:16:46;3.90;;;1.30;;
19554;SDS011;9924;50.828;6.440;2023-06-26T16:19:31;6.68;;;1.40;;
19554;SDS011;9924;50.828;6.440;2023-06-26T16:22:16;10.35;;;1.70;;
19554;SDS011;9924;50.828;6.440;2023-06-26T16:25:00;3.72;;;1.30;;
19554;SDS011;9924;50.828;6.440;2023-06-26T16:27:45;6.80;;;1.58;;
19554;SDS011;9924;50.828;6.440;2023-06-26T16:30:30;5.10;;;1.40;;
19554;SDS011;9924;50.828;6.440;2023-06-26T16:33:14;4.60;;;1.20;;
19554;SDS011;9924;50.828;6.440;2023-06-26T16:35:59;4.25;;;1.23;;
19554;SDS011;9924;50.828;6.440;2023-06-26T16:38:43;6.75;;;1.88;;
19554;SDS011;9924;50.828;6.440;2023-06-26T16:41:28;8.38;;;1.38;;
19554;SDS011;9924;50.828;6.440;2023-06-26T16:44:13;6.78;;;1.42;;
19554;SDS011;9924;50.828;6.440;2023-06-26T16:46:58;2.42;;;1.55;;
19554;SDS011;9924;50.828;6.440;2023-06-26T16:49:44;5.72;;;1.45;;
19554;SDS011;9924;50.828;6.440;2023-06-26T16:52:29;5.45;;;1.27;;
19554;SDS011;9924;50.828;6.440;2023-06-26T16:55:13;5.65;;;1.85;;
19554;SDS011;9924;50.828;6.440;2023-06-26T16:57:58;9.15;;;1.73;;